createdAt,value
2019-03-29T00:00:58.930Z,60.61
2019-03-29T00:01:58.690Z,60.71
2019-03-29T00:02:58.681Z,60.41
2019-03-29T00:03:58.831Z,60.30
2019-03-29T00:04:58.662Z,60.82
2019-03-29T00:05:58.648Z,60.41
2019-03-29T00:06:58.636Z,60.92
2019-03-29T00:07:58.626Z,60.78
2019-03-29T00:08:58.635Z,60.51
2019-03-29T00:09:58.598Z,60.78
2019-03-29T00:10:58.596Z,60.30
2019-03-29T00:11:58.574Z,61.12
2019-03-29T00:12:58.565Z,60.61
2019-03-29T00:13:58.649Z,61.02
2019-03-29T00:14:58.551Z,60.82
2019-03-29T00:15:59.918Z,61.02
2019-03-29T00:16:58.519Z,60.71
2019-03-29T00:17:58.517Z,61.02
2019-03-29T00:18:58.527Z,62.55
2019-03-29T00:19:58.512Z,60.82
2019-03-29T00:20:58.472Z,61.19
2019-03-29T00:21:58.472Z,60.61
2019-03-29T00:22:58.459Z,61.12
2019-03-29T00:24:06.639Z,60.53
2019-03-29T00:24:59.454Z,60.41
2019-03-29T00:25:59.110Z,60.82
2019-03-29T00:26:58.416Z,60.82
2019-03-29T00:27:58.393Z,61.02
2019-03-29T00:28:58.400Z,60.82
2019-03-29T00:29:58.409Z,60.51
2019-03-29T00:30:58.363Z,61.22
2019-03-29T00:31:58.354Z,60.53
2019-03-29T00:32:58.337Z,60.61
2019-03-29T00:33:58.343Z,61.05
2019-03-29T00:34:58.350Z,60.64
2019-03-29T00:35:58.309Z,60.82
2019-03-29T00:36:58.294Z,60.85
2019-03-29T00:37:58.281Z,61.15
2019-03-29T00:38:58.285Z,60.92
2019-03-29T00:39:58.301Z,61.46
2019-03-29T00:40:58.323Z,61.53
2019-03-29T00:41:58.243Z,61.46
2019-03-29T00:42:58.236Z,61.66
2019-03-29T00:43:58.215Z,61.05
2019-03-29T00:44:58.204Z,61.46
2019-03-29T00:45:58.233Z,61.46
2019-03-29T00:46:58.184Z,61.76
2019-03-29T00:47:58.178Z,61.76
2019-03-29T00:48:58.170Z,62.20
2019-03-29T00:49:58.151Z,62.07
2019-03-29T00:50:58.952Z,61.79
2019-03-29T00:51:58.130Z,61.90
2019-03-29T00:52:58.125Z,62.10
2019-03-29T00:53:58.111Z,62.10
2019-03-29T00:54:58.095Z,62.20
2019-03-29T00:55:58.111Z,62.10
2019-03-29T00:56:58.077Z,62.10
2019-03-29T00:57:58.080Z,62.20
2019-03-29T00:58:58.060Z,62.61
2019-03-29T00:59:58.041Z,63.02
2019-03-29T01:00:58.074Z,62.30
2019-03-29T01:01:58.024Z,61.99
2019-03-29T01:02:58.010Z,62.61
2019-03-29T01:03:57.999Z,62.71
2019-03-29T01:04:57.987Z,62.74
2019-03-29T01:05:58.012Z,62.54
2019-03-29T01:06:57.997Z,63.15
2019-03-29T01:08:07.879Z,63.04
2019-03-29T01:08:58.945Z,63.15
2019-03-29T01:09:57.940Z,63.86
2019-03-29T01:10:57.924Z,63.66
2019-03-29T01:11:57.937Z,63.48
2019-03-29T01:12:58.310Z,64.00
2019-03-29T01:13:57.882Z,63.86
2019-03-29T01:14:57.872Z,63.86
2019-03-29T01:15:57.860Z,64.68
2019-03-29T01:16:57.890Z,64.40
2019-03-29T01:17:57.841Z,64.20
2019-03-29T01:18:57.841Z,64.30
2019-03-29T01:19:57.822Z,64.30
2019-03-29T01:20:57.805Z,64.40
2019-03-29T01:21:57.883Z,64.61
2019-03-29T01:22:57.995Z,65.46
2019-03-29T01:23:57.775Z,65.22
2019-03-29T01:24:57.767Z,64.95
2019-03-29T01:25:57.759Z,65.15
2019-03-29T01:26:57.740Z,65.25
2019-03-29T01:27:57.762Z,65.36
2019-03-29T01:28:57.723Z,65.36
2019-03-29T01:29:57.715Z,65.39
2019-03-29T01:30:57.696Z,65.56
2019-03-29T01:31:57.711Z,65.15
2019-03-29T01:32:58.916Z,65.25
2019-03-29T01:33:57.670Z,65.46
2019-03-29T01:34:57.661Z,65.36
2019-03-29T01:35:57.649Z,65.25
2019-03-29T01:36:57.631Z,65.25
2019-03-29T01:37:57.644Z,64.95
2019-03-29T01:38:57.608Z,65.15
2019-03-29T01:39:57.599Z,65.15
2019-03-29T01:40:57.594Z,65.36
2019-03-29T01:41:57.577Z,65.15
2019-03-29T01:42:57.590Z,65.25
2019-03-29T01:43:57.553Z,65.25
2019-03-29T01:44:57.546Z,65.46
2019-03-29T01:45:57.532Z,65.08
2019-03-29T01:46:57.526Z,65.25
2019-03-29T01:47:57.537Z,65.15
2019-03-29T01:48:57.499Z,65.56
2019-03-29T01:49:57.499Z,65.90
2019-03-29T01:50:57.486Z,65.87
2019-03-29T01:51:57.465Z,66.07
2019-03-29T01:52:57.476Z,66.31
2019-03-29T01:53:57.452Z,66.51
2019-03-29T01:54:57.433Z,66.20
2019-03-29T01:55:57.420Z,65.80
2019-03-29T01:56:57.412Z,66.10
2019-03-29T01:57:58.315Z,66.41
2019-03-29T01:58:57.392Z,66.31
2019-03-29T01:59:57.390Z,66.61
2019-03-29T02:00:57.371Z,66.31
2019-03-29T02:01:57.358Z,66.64
2019-03-29T02:02:57.368Z,66.85
2019-03-29T02:03:57.483Z,66.54
2019-03-29T02:04:57.327Z,66.92
2019-03-29T02:05:57.316Z,67.05
2019-03-29T02:06:57.305Z,66.95
2019-03-29T02:07:57.317Z,66.85
2019-03-29T02:08:57.300Z,66.95
2019-03-29T02:09:57.307Z,67.05
2019-03-29T02:10:57.263Z,67.36
2019-03-29T02:11:57.249Z,67.05
2019-03-29T02:12:57.284Z,67.29
2019-03-29T02:13:57.257Z,66.95
2019-03-29T02:14:57.211Z,67.26
2019-03-29T02:15:57.204Z,67.29
2019-03-29T02:16:57.192Z,67.08
2019-03-29T02:17:57.183Z,67.26
2019-03-29T02:18:57.282Z,67.05
2019-03-29T02:19:58.033Z,67.16
2019-03-29T02:20:57.144Z,67.19
2019-03-29T02:21:57.140Z,67.49
2019-03-29T02:22:57.129Z,67.40
2019-03-29T02:23:57.331Z,67.57
2019-03-29T02:24:57.099Z,67.29
2019-03-29T02:25:57.096Z,67.46
2019-03-29T02:26:57.083Z,67.46
2019-03-29T02:27:57.076Z,67.46
2019-03-29T02:28:57.174Z,67.49
2019-03-29T02:29:57.045Z,67.60
2019-03-29T02:30:57.041Z,67.70
2019-03-29T02:31:57.187Z,67.70
2019-03-29T02:32:57.014Z,68.01
2019-03-29T02:33:57.043Z,68.11
2019-03-29T02:34:57.038Z,68.21
2019-03-29T02:35:56.988Z,68.32
2019-03-29T02:36:56.972Z,68.83
2019-03-29T02:37:57.068Z,68.41
2019-03-29T02:38:58.990Z,68.62
2019-03-29T02:39:56.978Z,68.41
2019-03-29T02:40:56.929Z,68.41
2019-03-29T02:41:56.920Z,68.32
2019-03-29T02:42:56.918Z,68.35
2019-03-29T02:43:56.894Z,68.65
2019-03-29T02:44:56.907Z,68.41
2019-03-29T02:45:57.839Z,68.21
2019-03-29T02:46:56.875Z,68.14
2019-03-29T02:47:56.849Z,68.01
2019-03-29T02:48:56.835Z,68.35
2019-03-29T02:49:56.855Z,68.24
2019-03-29T02:50:56.817Z,67.94
2019-03-29T02:51:56.832Z,67.90
2019-03-29T02:52:56.799Z,68.04
2019-03-29T02:53:56.780Z,68.21
2019-03-29T02:54:56.800Z,68.01
2019-03-29T02:55:56.760Z,67.94
2019-03-29T02:56:56.745Z,68.04
2019-03-29T02:57:56.745Z,68.04
2019-03-29T02:58:56.729Z,67.60
2019-03-29T02:59:56.756Z,67.70
2019-03-29T03:00:56.706Z,67.73
2019-03-29T03:01:56.698Z,68.32
2019-03-29T03:02:56.687Z,68.52
2019-03-29T03:03:56.668Z,68.45
2019-03-29T03:04:56.657Z,68.45
2019-03-29T03:05:56.667Z,68.35
2019-03-29T03:06:56.635Z,68.04
2019-03-29T03:07:56.637Z,68.14
2019-03-29T03:09:12.320Z,68.14
2019-03-29T03:09:57.600Z,68.04
2019-03-29T03:10:56.621Z,68.14
2019-03-29T03:11:56.578Z,68.35
2019-03-29T03:12:56.568Z,68.45
2019-03-29T03:13:56.563Z,68.65
2019-03-29T03:14:56.551Z,68.35
2019-03-29T03:15:56.563Z,68.24
2019-03-29T03:16:56.524Z,68.68
2019-03-29T03:17:56.523Z,68.55
2019-03-29T03:18:56.506Z,68.89
2019-03-29T03:19:56.497Z,68.79
2019-03-29T03:20:56.520Z,69.30
2019-03-29T03:21:56.467Z,68.68
2019-03-29T03:22:56.454Z,69.61
2019-03-29T03:23:56.445Z,68.89
2019-03-29T03:24:56.442Z,69.71
2019-03-29T03:25:56.449Z,69.61
2019-03-29T03:26:56.432Z,68.59
2019-03-29T03:27:56.409Z,69.10
2019-03-29T03:28:56.393Z,69.61
2019-03-29T03:29:56.381Z,69.61
2019-03-29T03:30:56.411Z,69.61
2019-03-29T03:31:56.370Z,69.40
2019-03-29T03:32:56.344Z,69.20
2019-03-29T03:33:56.333Z,69.30
2019-03-29T03:34:56.321Z,69.33
2019-03-29T03:35:56.334Z,69.30
2019-03-29T03:36:56.305Z,69.33
2019-03-29T03:37:56.287Z,69.20
2019-03-29T03:38:56.277Z,70.02
2019-03-29T03:39:56.266Z,69.92
2019-03-29T03:40:56.288Z,69.33
2019-03-29T03:41:56.244Z,69.64
2019-03-29T03:42:56.241Z,69.81
2019-03-29T03:43:56.227Z,70.12
2019-03-29T03:44:56.213Z,69.61
2019-03-29T03:45:56.221Z,70.05
2019-03-29T03:46:56.193Z,69.54
2019-03-29T03:47:56.174Z,69.84
2019-03-29T03:48:56.185Z,69.84
2019-03-29T03:50:00.484Z,70.05
2019-03-29T03:50:56.202Z,69.71
2019-03-29T03:51:56.135Z,69.43
2019-03-29T03:52:56.123Z,69.43
2019-03-29T03:53:56.116Z,69.95
2019-03-29T03:54:56.096Z,69.81
2019-03-29T03:55:56.086Z,69.64
2019-03-29T03:56:56.098Z,69.43
2019-03-29T03:57:57.949Z,70.15
2019-03-29T03:58:56.056Z,70.15
2019-03-29T03:59:56.044Z,69.95
2019-03-29T04:00:56.068Z,69.84
2019-03-29T04:01:56.044Z,70.05
2019-03-29T04:02:56.017Z,70.15
2019-03-29T04:03:56.001Z,69.95
2019-03-29T04:04:55.984Z,70.36
2019-03-29T04:05:55.997Z,69.84
2019-03-29T04:06:55.996Z,70.36
2019-03-29T04:07:55.966Z,70.90
2019-03-29T04:08:55.943Z,70.80
2019-03-29T04:09:55.957Z,70.80
2019-03-29T04:10:55.933Z,71.11
2019-03-29T04:11:56.080Z,71.21
2019-03-29T04:12:55.899Z,71.11
2019-03-29T04:13:55.889Z,71.11
2019-03-29T04:14:55.875Z,71.52
2019-03-29T04:15:55.863Z,71.14
2019-03-29T04:16:55.877Z,71.21
2019-03-29T04:17:55.879Z,71.52
2019-03-29T04:18:55.839Z,71.21
2019-03-29T04:19:55.819Z,71.72
2019-03-29T04:20:55.945Z,71.21
2019-03-29T04:21:55.796Z,71.35
2019-03-29T04:22:55.837Z,72.24
2019-03-29T04:23:55.780Z,71.55
2019-03-29T04:24:55.765Z,71.35
2019-03-29T04:25:55.774Z,71.66
2019-03-29T04:26:55.754Z,71.55
2019-03-29T04:27:55.772Z,71.35
2019-03-29T04:29:04.418Z,71.25
2019-03-29T04:29:56.704Z,71.35
2019-03-29T04:30:55.698Z,71.35
2019-03-29T04:31:55.689Z,71.45
2019-03-29T04:32:55.703Z,71.45
2019-03-29T04:33:55.664Z,71.48
2019-03-29T04:34:55.649Z,71.25
2019-03-29T04:35:55.639Z,71.66
2019-03-29T04:36:55.642Z,71.35
2019-03-29T04:37:55.639Z,71.38
2019-03-29T04:38:55.615Z,71.25
2019-03-29T04:40:07.127Z,71.25
2019-03-29T04:40:56.594Z,70.84
2019-03-29T04:41:55.575Z,71.04
2019-03-29T04:42:55.586Z,71.48
2019-03-29T04:43:55.554Z,71.59
2019-03-29T04:44:59.377Z,71.35
2019-03-29T04:45:55.548Z,71.45
2019-03-29T04:46:55.515Z,71.55
2019-03-29T04:47:55.537Z,71.59
2019-03-29T04:48:55.493Z,71.55
2019-03-29T04:49:55.491Z,71.48
2019-03-29T04:50:55.475Z,72.10
2019-03-29T04:51:55.462Z,72.10
2019-03-29T04:52:55.482Z,72.00
2019-03-29T04:53:55.468Z,71.69
2019-03-29T04:54:55.434Z,71.89
2019-03-29T04:55:55.418Z,71.17
2019-03-29T04:56:55.415Z,71.59
2019-03-29T04:57:55.392Z,71.55
2019-03-29T04:58:55.405Z,71.28
2019-03-29T04:59:55.384Z,71.89
2019-03-29T05:00:55.361Z,71.89
2019-03-29T05:01:55.351Z,71.59
2019-03-29T05:02:55.347Z,72.00
2019-03-29T05:03:55.367Z,72.10
2019-03-29T05:04:55.344Z,71.89
2019-03-29T05:05:55.307Z,71.59
2019-03-29T05:06:55.295Z,72.20
2019-03-29T05:07:55.285Z,71.89
2019-03-29T05:08:55.277Z,71.38
2019-03-29T05:09:55.267Z,72.20
2019-03-29T05:10:55.278Z,72.00
2019-03-29T05:11:55.237Z,71.79
2019-03-29T05:12:55.225Z,71.79
2019-03-29T05:13:55.260Z,71.79
2019-03-29T05:14:55.227Z,71.79
2019-03-29T05:15:55.192Z,72.00
2019-03-29T05:16:55.192Z,71.89
2019-03-29T05:17:55.171Z,71.79
2019-03-29T05:18:55.163Z,72.10
2019-03-29T05:19:55.179Z,71.69
2019-03-29T05:20:55.165Z,71.89
2019-03-29T05:21:55.133Z,71.59
2019-03-29T05:22:55.118Z,71.79
2019-03-29T05:23:55.114Z,71.69
2019-03-29T05:24:55.091Z,71.48
2019-03-29T05:25:55.109Z,71.31
2019-03-29T05:26:55.073Z,71.89
2019-03-29T05:27:55.064Z,71.59
2019-03-29T05:28:55.053Z,71.89
2019-03-29T05:29:55.040Z,72.20
2019-03-29T05:30:55.075Z,71.89
2019-03-29T05:31:55.015Z,71.69
2019-03-29T05:32:55.023Z,71.69
2019-03-29T05:33:54.992Z,72.00
2019-03-29T05:34:54.982Z,71.79
2019-03-29T05:35:55.000Z,71.89
2019-03-29T05:36:58.217Z,71.59
2019-03-29T05:37:54.948Z,71.89
2019-03-29T05:38:54.943Z,71.79
2019-03-29T05:39:54.924Z,72.00
2019-03-29T05:40:54.915Z,71.72
2019-03-29T05:41:54.926Z,72.31
2019-03-29T05:42:54.893Z,72.10
2019-03-29T05:43:54.880Z,72.20
2019-03-29T05:44:54.885Z,71.79
2019-03-29T05:45:54.891Z,72.00
2019-03-29T05:46:54.880Z,72.10
2019-03-29T05:47:54.839Z,71.69
2019-03-29T05:48:54.824Z,72.41
2019-03-29T05:49:54.813Z,72.10
2019-03-29T05:50:54.802Z,72.31
2019-03-29T05:51:54.820Z,72.10
2019-03-29T05:52:54.782Z,72.20
2019-03-29T05:53:54.774Z,72.55
2019-03-29T05:54:54.764Z,72.61
2019-03-29T05:55:54.750Z,72.31
2019-03-29T05:56:54.762Z,72.10
2019-03-29T05:57:54.731Z,72.51
2019-03-29T05:58:54.714Z,72.10
2019-03-29T05:59:54.704Z,72.41
2019-03-29T06:00:54.700Z,72.20
2019-03-29T06:01:54.722Z,72.20
2019-03-29T06:02:54.681Z,72.41
2019-03-29T06:03:54.662Z,72.41
2019-03-29T06:04:54.649Z,72.75
2019-03-29T06:05:54.635Z,73.27
2019-03-29T06:06:54.663Z,73.36
2019-03-29T06:07:54.614Z,73.33
2019-03-29T06:08:54.603Z,72.65
2019-03-29T06:09:54.592Z,72.20
2019-03-29T06:10:54.581Z,72.61
2019-03-29T06:11:54.578Z,73.23
2019-03-29T06:12:54.595Z,72.41
2019-03-29T06:13:54.558Z,73.02
2019-03-29T06:14:54.535Z,72.41
2019-03-29T06:15:54.525Z,72.61
2019-03-29T06:16:54.519Z,72.41
2019-03-29T06:17:54.573Z,72.72
2019-03-29T06:18:54.498Z,72.41
2019-03-29T06:19:54.486Z,72.41
2019-03-29T06:20:54.468Z,72.20
2019-03-29T06:21:54.462Z,72.31
2019-03-29T06:22:54.469Z,72.38
2019-03-29T06:23:54.436Z,72.68
2019-03-29T06:24:54.428Z,72.06
2019-03-29T06:25:54.420Z,72.82
2019-03-29T06:26:54.411Z,72.20
2019-03-29T06:27:54.419Z,72.58
2019-03-29T06:28:54.383Z,71.86
2019-03-29T06:29:54.368Z,71.97
2019-03-29T06:30:54.358Z,71.76
2019-03-29T06:31:54.348Z,72.27
2019-03-29T06:32:54.387Z,71.97
2019-03-29T06:33:54.330Z,71.55
2019-03-29T06:34:54.314Z,71.86
2019-03-29T06:35:54.306Z,72.27
2019-03-29T06:36:54.291Z,72.06
2019-03-29T06:37:54.313Z,71.66
2019-03-29T06:38:54.307Z,71.76
2019-03-29T06:39:54.260Z,71.76
2019-03-29T06:41:02.938Z,72.06
2019-03-29T06:41:55.244Z,71.86
2019-03-29T06:42:54.260Z,71.86
2019-03-29T06:43:54.213Z,71.76
2019-03-29T06:44:54.226Z,72.03
2019-03-29T06:45:54.192Z,71.52
2019-03-29T06:46:54.186Z,72.27
2019-03-29T06:47:54.182Z,71.42
2019-03-29T06:48:54.186Z,71.62
2019-03-29T06:49:54.155Z,71.72
2019-03-29T06:50:54.148Z,71.52
2019-03-29T06:51:54.127Z,71.31
2019-03-29T06:52:54.114Z,71.21
2019-03-29T06:53:54.164Z,70.87
2019-03-29T06:54:54.090Z,70.90
2019-03-29T06:55:54.093Z,71.08
2019-03-29T06:56:54.066Z,70.77
2019-03-29T06:57:54.060Z,70.97
2019-03-29T06:58:54.087Z,70.97
2019-03-29T06:59:54.034Z,71.28
2019-03-29T07:00:54.025Z,70.87
2019-03-29T07:01:54.016Z,71.28
2019-03-29T07:02:54.027Z,71.08
2019-03-29T07:03:54.011Z,70.36
2019-03-29T07:04:53.992Z,71.18
2019-03-29T07:05:53.981Z,71.28
2019-03-29T07:06:53.968Z,71.08
2019-03-29T07:07:53.954Z,70.36
2019-03-29T07:08:53.983Z,71.28
2019-03-29T07:09:53.935Z,71.04
2019-03-29T07:10:53.915Z,70.94
2019-03-29T07:11:53.904Z,70.73
2019-03-29T07:12:56.461Z,70.64
2019-03-29T07:13:57.734Z,70.22
2019-03-29T07:14:53.867Z,70.02
2019-03-29T07:15:53.854Z,70.02
2019-03-29T07:16:53.848Z,70.22
2019-03-29T07:17:53.839Z,69.81
2019-03-29T07:18:53.900Z,69.92
2019-03-29T07:19:53.816Z,69.27
2019-03-29T07:20:53.876Z,69.89
2019-03-29T07:21:53.796Z,69.78
2019-03-29T07:22:53.788Z,69.98
2019-03-29T07:23:53.765Z,69.68
2019-03-29T07:24:53.788Z,69.68
2019-03-29T07:25:56.327Z,69.89
2019-03-29T07:26:53.732Z,69.57
2019-03-29T07:27:53.736Z,69.37
2019-03-29T07:28:53.714Z,69.37
2019-03-29T07:29:53.720Z,69.44
2019-03-29T07:30:53.695Z,69.54
2019-03-29T07:31:53.678Z,69.34
2019-03-29T07:32:53.675Z,69.44
2019-03-29T07:33:53.657Z,69.13
2019-03-29T07:34:53.768Z,69.03
2019-03-29T07:35:53.644Z,68.73
2019-03-29T07:36:53.627Z,68.93
2019-03-29T07:37:53.614Z,68.83
2019-03-29T07:38:53.599Z,68.41
2019-03-29T07:39:54.042Z,68.49
2019-03-29T07:40:53.581Z,68.38
2019-03-29T07:41:53.573Z,68.59
2019-03-29T07:42:53.558Z,68.79
2019-03-29T07:43:53.543Z,68.28
2019-03-29T07:44:53.571Z,68.08
2019-03-29T07:45:53.553Z,68.28
2019-03-29T07:46:53.526Z,68.25
2019-03-29T07:47:53.503Z,68.05
2019-03-29T07:48:53.491Z,67.54
2019-03-29T07:49:53.479Z,67.46
2019-03-29T07:50:53.493Z,67.23
2019-03-29T07:51:53.466Z,67.33
2019-03-29T07:52:53.446Z,67.13
2019-03-29T07:53:53.435Z,67.13
2019-03-29T07:54:53.421Z,67.33
2019-03-29T07:55:53.432Z,67.02
2019-03-29T07:56:53.477Z,66.92
2019-03-29T07:57:53.387Z,66.99
2019-03-29T07:58:53.380Z,67.10
2019-03-29T07:59:53.366Z,66.89
2019-03-29T08:00:53.391Z,66.07
2019-03-29T08:01:53.361Z,66.35
2019-03-29T08:02:53.346Z,66.38
2019-03-29T08:03:53.590Z,66.75
2019-03-29T08:04:53.328Z,66.75
2019-03-29T08:05:53.335Z,66.55
2019-03-29T08:06:53.290Z,66.25
2019-03-29T08:07:53.291Z,66.52
2019-03-29T08:08:53.270Z,65.80
2019-03-29T08:09:53.996Z,65.19
2019-03-29T08:10:53.977Z,65.19
2019-03-29T08:11:53.283Z,65.22
2019-03-29T08:12:53.226Z,65.70
2019-03-29T08:13:53.214Z,65.30
2019-03-29T08:14:53.201Z,65.60
2019-03-29T08:15:53.194Z,65.91
2019-03-29T08:16:53.202Z,64.89
2019-03-29T08:17:53.186Z,65.16
2019-03-29T08:18:53.161Z,64.65
2019-03-29T08:20:13.396Z,65.16
2019-03-29T08:20:54.138Z,65.26
2019-03-29T08:21:53.151Z,65.37
2019-03-29T08:22:53.325Z,64.83
2019-03-29T08:23:53.103Z,64.83
2019-03-29T08:24:53.097Z,64.45
2019-03-29T08:25:53.080Z,64.42
2019-03-29T08:26:53.100Z,63.90
2019-03-29T08:27:53.061Z,63.90
2019-03-29T08:28:53.057Z,63.83
2019-03-29T08:29:53.042Z,63.70
2019-03-29T08:30:53.027Z,63.87
2019-03-29T08:31:55.503Z,63.40
2019-03-29T08:32:53.010Z,63.57
2019-03-29T08:33:52.989Z,63.57
2019-03-29T08:34:52.980Z,63.57
2019-03-29T08:35:52.966Z,64.28
2019-03-29T08:36:52.985Z,63.98
2019-03-29T08:37:52.947Z,63.78
2019-03-29T08:38:52.932Z,63.26
2019-03-29T08:39:56.227Z,63.54
2019-03-29T08:40:52.913Z,63.64
2019-03-29T08:41:59.981Z,62.52
2019-03-29T08:42:53.919Z,62.73
2019-03-29T08:43:52.894Z,62.35
2019-03-29T08:44:52.869Z,62.42
2019-03-29T08:45:52.858Z,62.01
2019-03-29T08:46:52.846Z,62.11
2019-03-29T08:47:52.856Z,62.73
2019-03-29T08:48:52.834Z,62.32
2019-03-29T08:49:52.811Z,62.80
2019-03-29T08:50:52.801Z,62.18
2019-03-29T08:51:52.786Z,62.70
2019-03-29T08:52:52.799Z,61.78
2019-03-29T08:53:52.777Z,61.65
2019-03-29T08:54:52.755Z,61.85
2019-03-29T08:55:52.741Z,61.75
2019-03-29T08:56:52.736Z,61.65
2019-03-29T08:57:52.746Z,60.70
2019-03-29T08:58:52.709Z,61.44
2019-03-29T08:59:52.701Z,60.83
2019-03-29T09:00:52.689Z,61.11
2019-03-29T09:01:52.678Z,60.09
2019-03-29T09:02:52.688Z,61.00
2019-03-29T09:04:04.564Z,60.50
2019-03-29T09:04:53.642Z,60.70
2019-03-29T09:05:52.627Z,60.68
2019-03-29T09:06:54.124Z,61.41
2019-03-29T09:07:52.640Z,61.11
2019-03-29T09:08:52.601Z,60.60
2019-03-29T09:09:52.581Z,60.19
2019-03-29T09:10:52.570Z,60.57
2019-03-29T09:11:52.561Z,60.16
2019-03-29T09:12:52.581Z,60.57
2019-03-29T09:13:52.590Z,60.06
2019-03-29T09:14:52.525Z,60.47
2019-03-29T09:15:52.528Z,60.68
2019-03-29T09:16:52.513Z,59.96
2019-03-29T09:17:52.516Z,59.63
2019-03-29T09:18:52.503Z,58.61
2019-03-29T09:19:52.477Z,59.01
2019-03-29T09:20:52.458Z,59.01
2019-03-29T09:21:52.459Z,58.81
2019-03-29T09:22:52.458Z,58.51
2019-03-29T09:23:52.456Z,58.48
2019-03-29T09:24:52.416Z,58.69
2019-03-29T09:25:52.402Z,58.78
2019-03-29T09:26:52.398Z,59.09
2019-03-29T09:27:52.383Z,58.78
2019-03-29T09:28:52.412Z,58.69
2019-03-29T09:29:52.361Z,58.89
2019-03-29T09:30:52.346Z,58.69
2019-03-29T09:31:52.340Z,58.25
2019-03-29T09:32:52.330Z,58.15
2019-03-29T09:33:52.350Z,58.25
2019-03-29T09:34:52.305Z,58.15
2019-03-29T09:35:52.290Z,58.15
2019-03-29T09:36:52.286Z,58.45
2019-03-29T09:37:52.274Z,58.56
2019-03-29T09:38:52.294Z,58.65
2019-03-29T09:39:52.245Z,59.03
2019-03-29T09:40:58.881Z,58.22
2019-03-29T09:41:53.233Z,58.04
2019-03-29T09:43:06.183Z,58.12
2019-03-29T09:43:54.485Z,57.81
2019-03-29T09:44:52.226Z,57.61
2019-03-29T09:45:52.183Z,57.38
2019-03-29T09:46:52.172Z,57.38
2019-03-29T09:47:52.161Z,57.71
2019-03-29T09:48:52.145Z,57.71
2019-03-29T09:49:52.158Z,57.92
2019-03-29T09:50:52.123Z,57.99
2019-03-29T09:51:52.118Z,57.28
2019-03-29T09:52:52.106Z,57.31
2019-03-29T09:53:52.098Z,56.98
2019-03-29T09:54:54.020Z,57.56
2019-03-29T09:55:53.503Z,57.76
2019-03-29T09:56:52.057Z,58.17
2019-03-29T09:57:52.057Z,57.25
2019-03-29T09:58:52.033Z,57.05
2019-03-29T09:59:52.055Z,57.05
2019-03-29T10:00:52.028Z,57.66
2019-03-29T10:01:54.049Z,57.66
2019-03-29T10:02:52.024Z,57.76
2019-03-29T10:03:51.987Z,57.97
2019-03-29T10:04:51.993Z,57.76
2019-03-29T10:05:51.982Z,57.35
2019-03-29T10:06:51.948Z,57.66
2019-03-29T10:07:51.936Z,57.56
2019-03-29T10:08:53.503Z,56.92
2019-03-29T10:09:51.966Z,57.53
2019-03-29T10:10:51.908Z,56.82
2019-03-29T10:11:51.902Z,57.03
2019-03-29T10:12:51.879Z,56.72
2019-03-29T10:13:51.881Z,56.92
2019-03-29T10:14:51.858Z,57.33
2019-03-29T10:15:51.886Z,57.43
2019-03-29T10:16:51.838Z,56.82
2019-03-29T10:17:51.831Z,57.23
2019-03-29T10:18:51.842Z,56.99
2019-03-29T10:19:51.801Z,56.70
2019-03-29T10:20:51.817Z,56.57
2019-03-29T10:21:51.796Z,57.68
2019-03-29T10:22:51.769Z,56.44
2019-03-29T10:23:51.769Z,56.26
2019-03-29T10:24:51.750Z,56.64
2019-03-29T10:25:51.767Z,56.46
2019-03-29T10:26:51.728Z,57.15
2019-03-29T10:27:51.724Z,57.15
2019-03-29T10:28:51.703Z,56.74
2019-03-29T10:29:51.690Z,55.30
2019-03-29T10:30:51.708Z,55.19
2019-03-29T10:31:51.674Z,55.02
2019-03-29T10:32:51.660Z,55.52
2019-03-29T10:33:51.646Z,55.43
2019-03-29T10:34:51.656Z,55.32
2019-03-29T10:35:52.936Z,56.44
2019-03-29T10:36:51.615Z,56.54
2019-03-29T10:37:51.601Z,56.34
2019-03-29T10:38:51.590Z,56.44
2019-03-29T10:39:51.587Z,56.03
2019-03-29T10:40:51.608Z,56.34
2019-03-29T10:41:51.558Z,56.23
2019-03-29T10:42:57.753Z,56.34
2019-03-29T10:43:52.550Z,56.71
2019-03-29T10:44:51.527Z,56.64
2019-03-29T10:45:51.544Z,55.50
2019-03-29T10:46:51.508Z,56.51
2019-03-29T10:47:51.494Z,54.49
2019-03-29T10:48:51.554Z,54.08
2019-03-29T10:49:51.474Z,54.61
2019-03-29T10:50:51.483Z,55.10
2019-03-29T10:51:51.527Z,55.60
2019-03-29T10:52:51.439Z,54.38
2019-03-29T10:53:51.436Z,55.19
2019-03-29T10:54:51.428Z,54.59
2019-03-29T10:55:51.404Z,54.18
2019-03-29T10:56:51.414Z,54.38
2019-03-29T10:57:51.380Z,53.88
2019-03-29T10:58:51.373Z,54.71
2019-03-29T10:59:51.355Z,55.30
2019-03-29T11:00:51.352Z,55.40
2019-03-29T11:01:51.361Z,54.66
2019-03-29T11:02:51.328Z,54.97
2019-03-29T11:03:51.331Z,54.56
2019-03-29T11:04:51.308Z,54.86
2019-03-29T11:05:51.301Z,54.16
2019-03-29T11:06:51.314Z,53.42
2019-03-29T11:07:51.280Z,54.33
2019-03-29T11:08:51.260Z,53.60
2019-03-29T11:09:51.254Z,52.89
2019-03-29T11:10:51.246Z,53.19
2019-03-29T11:11:51.247Z,52.48
2019-03-29T11:12:51.227Z,52.69
2019-03-29T11:13:51.204Z,53.40
2019-03-29T11:14:51.194Z,53.27
2019-03-29T11:15:51.179Z,52.79
2019-03-29T11:16:51.213Z,52.48
2019-03-29T11:17:51.166Z,52.08
2019-03-29T11:18:51.153Z,52.56
2019-03-29T11:19:51.134Z,52.08
2019-03-29T11:20:51.123Z,52.87
2019-03-29T11:21:51.117Z,52.46
2019-03-29T11:22:51.126Z,51.86
2019-03-29T11:23:51.125Z,52.03
2019-03-29T11:24:51.089Z,51.63
2019-03-29T11:25:51.072Z,51.53
2019-03-29T11:26:51.092Z,50.82
2019-03-29T11:27:51.050Z,51.53
2019-03-29T11:28:51.036Z,52.06
2019-03-29T11:29:51.029Z,52.34
2019-03-29T11:30:51.012Z,51.53
2019-03-29T11:31:51.043Z,52.14
2019-03-29T11:32:51.130Z,49.91
2019-03-29T11:33:51.001Z,51.71
2019-03-29T11:34:50.975Z,50.19
2019-03-29T11:35:50.982Z,50.29
2019-03-29T11:36:52.661Z,50.37
2019-03-29T11:37:50.969Z,51.28
2019-03-29T11:38:50.923Z,49.44
2019-03-29T11:39:50.912Z,49.13
2019-03-29T11:40:50.906Z,49.66
2019-03-29T11:41:50.904Z,49.69
2019-03-29T11:42:50.915Z,49.76
2019-03-29T11:43:50.876Z,49.46
2019-03-29T11:44:50.869Z,50.37
2019-03-29T11:45:50.850Z,50.24
2019-03-29T11:46:50.849Z,50.85
2019-03-29T11:47:50.855Z,51.05
2019-03-29T11:48:50.817Z,49.52
2019-03-29T11:49:52.931Z,49.31
2019-03-29T11:50:50.793Z,49.01
2019-03-29T11:51:50.783Z,48.81
2019-03-29T11:52:50.809Z,49.01
2019-03-29T11:53:51.264Z,49.52
2019-03-29T11:54:50.749Z,49.04
2019-03-29T11:55:50.746Z,48.73
2019-03-29T11:56:50.727Z,49.62
2019-03-29T11:57:50.716Z,48.75
2019-03-29T11:58:50.742Z,49.13
2019-03-29T11:59:50.715Z,49.54
2019-03-29T12:00:50.688Z,49.05
2019-03-29T12:01:50.681Z,49.33
2019-03-29T12:02:50.662Z,49.13
2019-03-29T12:03:50.689Z,49.31
2019-03-29T12:04:50.660Z,49.31
2019-03-29T12:05:50.632Z,49.41
2019-03-29T12:06:50.621Z,50.32
2019-03-29T12:07:50.621Z,49.59
2019-03-29T12:08:50.621Z,49.19
2019-03-29T12:09:50.655Z,49.19
2019-03-29T12:10:50.578Z,48.89
2019-03-29T12:11:50.563Z,49.41
2019-03-29T12:12:50.551Z,49.31
2019-03-29T12:13:50.578Z,49.21
2019-03-29T12:14:50.535Z,49.29
2019-03-29T12:15:50.526Z,49.69
2019-03-29T12:16:50.507Z,48.89
2019-03-29T12:17:50.520Z,48.16
2019-03-29T12:18:50.505Z,48.46
2019-03-29T12:19:50.489Z,48.44
2019-03-29T12:20:50.464Z,47.43
2019-03-29T12:21:50.449Z,46.40
2019-03-29T12:22:50.448Z,45.59
2019-03-29T12:23:50.469Z,46.20
2019-03-29T12:24:50.417Z,46.40
2019-03-29T12:25:50.412Z,46.30
2019-03-29T12:26:50.395Z,47.23
2019-03-29T12:27:50.411Z,46.73
2019-03-29T12:28:50.373Z,47.33
2019-03-29T12:29:50.403Z,47.74
2019-03-29T12:30:50.350Z,47.31
2019-03-29T12:31:50.338Z,46.80
2019-03-29T12:32:50.332Z,46.80
2019-03-29T12:33:50.336Z,46.50
2019-03-29T12:34:50.360Z,46.40
2019-03-29T12:35:50.300Z,46.18
2019-03-29T12:36:50.288Z,45.98
2019-03-29T12:37:50.277Z,46.38
2019-03-29T12:38:50.261Z,46.48
2019-03-29T12:39:50.301Z,46.76
2019-03-29T12:40:50.249Z,46.34
2019-03-29T12:41:50.237Z,45.65
2019-03-29T12:42:50.222Z,45.73
2019-03-29T12:43:55.796Z,45.53
2019-03-29T12:44:51.221Z,45.83
2019-03-29T12:45:50.183Z,46.22
2019-03-29T12:46:50.180Z,45.10
2019-03-29T12:47:50.172Z,44.60
2019-03-29T12:48:50.622Z,45.21
2019-03-29T12:49:50.171Z,45.21
2019-03-29T12:50:50.152Z,45.71
2019-03-29T12:51:50.122Z,45.81
2019-03-29T12:52:50.110Z,45.61